Time;durP1;ratioP1;P1;durP2;ratioP2;P2;SDS_P1;SDS_P2;PMS_P1;PMS_P2;Temp;Humidity;BMP_temperature;BMP_pressure;BME280_temperature;BME280_humidity;BME280_pressure;Samples;Min_cycle;Max_cycle;Signal;HPM_P1;HPM_P2
2022/12/01 06:41:56;;;;;;;34.43;22.10;;;;;;;-1.85;100.00;99204.34;1871514;76;27984;-63
2022/12/01 06:44:23;;;;;;;23.12;15.85;;;;;;;-1.81;100.00;99213.98;1827745;78;20833;-63
2022/12/01 06:46:52;;;;;;;24.15;15.13;;;;;;;-1.75;100.00;99220.66;1827733;78;21234;-59
2022/12/01 06:49:19;;;;;;;14.98;11.22;;;;;;;-1.69;100.00;99217.28;1827558;78;21043;-62
2022/12/01 06:51:45;;;;;;;14.83;10.05;;;;;;;-1.63;100.00;99210.00;1827790;78;20899;-64
2022/12/01 06:54:12;;;;;;;12.58;10.28;;;;;;;-1.54;100.00;99204.14;1827797;78;20912;-60
2022/12/01 06:56:41;;;;;;;13.58;10.32;;;;;;;-1.46;100.00;99207.98;1827833;78;20927;-62
2022/12/01 06:59:08;;;;;;;12.82;9.55;;;;;;;-1.42;100.00;99214.00;1827994;78;21231;-61
2022/12/01 07:01:35;;;;;;;10.93;8.00;;;;;;;-1.41;100.00;99212.98;1827693;78;20879;-62
2022/12/01 07:04:01;;;;;;;11.35;8.55;;;;;;;-1.44;100.00;99219.91;1827977;78;20919;-62
2022/12/01 07:06:31;;;;;;;11.28;7.92;;;;;;;-1.36;100.00;99217.69;1817764;77;20907;-63
2022/12/01 07:08:57;;;;;;;11.33;8.20;;;;;;;-1.30;100.00;99213.03;1790716;80;21615;-64
2022/12/01 07:11:24;;;;;;;14.28;8.58;;;;;;;-1.26;100.00;99210.83;1766520;81;21977;-66
2022/12/01 07:13:56;;;;;;;12.53;9.48;;;;;;;-1.19;100.00;99213.03;1770142;80;21494;-61
2022/12/01 07:16:22;;;;;;;16.65;9.68;;;;;;;-1.16;100.00;99210.03;1780278;80;20912;-65
2022/12/01 07:18:49;;;;;;;18.75;11.85;;;;;;;-1.14;100.00;99202.77;1779422;79;20940;-63
2022/12/01 07:21:15;;;;;;;18.60;12.93;;;;;;;-1.10;100.00;99211.91;1757645;80;21063;-62
2022/12/01 07:23:42;;;;;;;18.05;13.98;;;;;;;-1.12;99.78;99214.73;1766502;79;21244;-61
2022/12/01 07:26:14;;;;;;;17.45;12.88;;;;;;;-1.14;99.59;99210.66;1762477;80;20943;-63
2022/12/01 07:28:41;;;;;;;16.85;12.20;;;;;;;-1.16;99.05;99210.03;1766151;80;21016;-61
2022/12/01 07:31:13;;;;;;;17.25;12.93;;;;;;;-1.21;98.60;99215.03;1781614;80;21019;-64
2022/12/01 07:33:40;;;;;;;18.25;12.98;;;;;;;-1.25;98.69;99210.66;1779012;80;20896;-61
2022/12/01 07:36:08;;;;;;;18.73;12.85;;;;;;;-1.23;98.84;99211.28;1764440;80;22873;-61
2022/12/01 07:38:34;;;;;;;19.67;12.63;;;;;;;-1.18;98.86;99214.67;1764947;80;20908;-64
2022/12/01 07:41:08;;;;;;;15.28;11.88;;;;;;;-1.12;98.46;99221.80;1762020;80;20986;-63
2022/12/01 07:43:35;;;;;;;22.13;18.80;;;;;;;-1.15;98.20;99221.67;1756100;81;20916;-60
2022/12/01 07:46:09;;;;;;;19.57;15.80;;;;;;;-1.19;97.51;99224.37;1747611;82;20908;-63
2022/12/01 07:48:42;;;;;;;17.07;12.78;;;;;;;-1.25;97.55;99232.19;1745399;81;21248;-59
2022/12/01 07:51:11;;;;;;;17.48;12.53;;;;;;;-1.28;97.50;99224.66;1766244;81;21098;-60
2022/12/01 07:53:38;;;;;;;17.30;12.47;;;;;;;-1.28;97.48;99229.91;1760615;81;20964;-63
2022/12/01 07:56:05;;;;;;;16.42;11.65;;;;;;;-1.26;97.51;99231.86;1755023;80;20968;-62
2022/12/01 07:58:32;;;;;;;20.27;15.20;;;;;;;-1.23;97.35;99222.30;1757361;80;20996;-63
2022/12/01 08:01:12;;;;;;;23.98;17.02;;;;;;;-1.20;97.19;99225.35;1756333;80;21240;-60
2022/12/01 08:03:39;;;;;;;24.70;18.10;;;;;;;-1.15;97.12;99222.16;1774052;80;20963;-60
2022/12/01 08:06:07;;;;;;;19.65;15.28;;;;;;;-1.12;96.73;99225.25;1765511;81;21301;-61
2022/12/01 08:08:36;;;;;;;19.62;12.80;;;;;;;-1.15;96.38;99220.84;1762277;81;21328;-60
2022/12/01 08:11:12;;;;;;;14.70;11.20;;;;;;;-1.20;95.96;99222.72;1754752;80;21003;-61
2022/12/01 08:13:40;;;;;;;16.23;10.93;;;;;;;-1.29;95.61;99224.33;1734693;82;21264;-62
2022/12/01 08:16:10;;;;;;;18.55;11.68;;;;;;;-1.32;95.70;99226.03;1734753;82;20976;-60
2022/12/01 08:18:38;;;;;;;21.27;14.30;;;;;;;-1.35;95.64;99221.14;1752913;81;20968;-62
2022/12/01 08:21:06;;;;;;;17.15;13.00;;;;;;;-1.35;95.69;99223.77;1735226;82;20932;-61
2022/12/01 08:23:32;;;;;;;17.73;11.88;;;;;;;-1.34;95.61;99228.04;1750082;81;20987;-61
2022/12/01 08:26:02;;;;;;;21.60;13.05;;;;;;;-1.39;95.35;99226.75;1766874;79;21283;-60
2022/12/01 08:28:29;;;;;;;15.48;10.88;;;;;;;-1.41;95.42;99231.39;1808818;79;20922;-61
2022/12/01 08:30:56;;;;;;;19.12;10.63;;;;;;;-1.43;95.19;99230.76;1809005;79;20843;-61
2022/12/01 08:33:36;;;;;;;19.27;12.40;;;;;;;-1.44;95.27;99223.06;1797916;79;21012;-59
2022/12/01 08:36:11;;;;;;;17.17;12.93;;;;;;;-1.40;95.29;99227.77;1767276;80;21003;-60
2022/12/01 08:38:37;;;;;;;16.55;12.18;;;;;;;-1.33;95.12;99216.51;1762249;79;21542;-59
2022/12/01 08:41:08;;;;;;;16.42;11.65;;;;;;;-1.31;94.59;99217.13;1760321;79;21059;-62
2022/12/01 08:43:39;;;;;;;15.43;10.58;;;;;;;-1.38;94.45;99218.38;1822647;77;20876;-62
2022/12/01 08:46:06;;;;;;;18.50;13.00;;;;;;;-1.43;94.37;99214.98;1814001;77;21225;-60
2022/12/01 08:48:33;;;;;;;24.02;16.35;;;;;;;-1.48;94.20;99217.84;1827835;77;21113;-61
2022/12/01 08:51:10;;;;;;;24.18;14.47;;;;;;;-1.53;94.34;99215.77;1815527;78;21191;-62
2022/12/01 08:53:39;;;;;;;22.82;16.73;;;;;;;-1.51;94.62;99209.83;1816235;78;21017;-61
2022/12/01 08:56:22;;;;;;;24.77;15.55;;;;;;;-1.45;94.54;99217.48;1802819;77;21282;-60
2022/12/01 08:58:52;;;;;;;20.10;12.40;;;;;;;-1.37;94.67;99216.08;1809304;77;20885;-64
2022/12/01 09:01:18;;;;;;;18.17;12.05;;;;;;;-1.28;94.27;99212.34;1808005;78;20888;-62
2022/12/01 09:03:45;;;;;;;19.07;13.62;;;;;;;-1.31;93.80;99216.64;1809652;77;21855;-62
2022/12/01 09:06:19;;;;;;;20.80;14.70;;;;;;;-1.33;93.82;99217.83;1824249;78;21624;-62
2022/12/01 09:08:46;;;;;;;15.98;11.25;;;;;;;-1.33;93.70;99215.20;1835879;77;20899;-64
2022/12/01 09:11:17;;;;;;;18.98;13.10;;;;;;;-1.30;93.62;99214.83;1841092;77;20849;-60
2022/12/01 09:13:45;;;;;;;17.82;13.35;;;;;;;-1.26;93.52;99210.83;1836760;77;21004;-62
2022/12/01 09:16:16;;;;;;;19.50;12.60;;;;;;;-1.24;93.25;99208.33;1799180;79;21918;-61
2022/12/01 09:18:44;;;;;;;16.52;12.23;;;;;;;-1.20;93.14;99204.31;1812308;77;20961;-64
2022/12/01 09:21:16;;;;;;;22.65;14.90;;;;;;;-1.23;92.84;99196.00;1764640;79;20897;-61
2022/12/01 09:23:43;;;;;;;26.27;15.58;;;;;;;-1.21;92.83;99200.08;1816051;78;20968;-61
2022/12/01 09:26:09;;;;;;;17.92;12.85;;;;;;;-1.19;92.73;99195.94;1820656;77;20948;-61
2022/12/01 09:28:36;;;;;;;18.10;13.60;;;;;;;-1.15;92.66;99190.12;1825988;77;21309;-62
2022/12/01 09:31:08;;;;;;;20.20;14.35;;;;;;;-1.06;92.63;99192.15;1815312;79;20982;-61
2022/12/01 09:33:34;;;;;;;17.30;13.28;;;;;;;-0.98;92.52;99194.64;1814757;79;20873;-62
2022/12/01 09:36:02;;;;;;;20.43;14.50;;;;;;;-0.93;92.28;99193.58;1807756;77;20911;-63
2022/12/01 09:38:29;;;;;;;19.25;13.68;;;;;;;-0.89;92.11;99189.56;1833330;77;21100;-69
2022/12/01 09:40:56;;;;;;;16.20;11.33;;;;;;;-0.87;91.74;99183.61;1814498;78;21185;-62
2022/12/01 09:43:25;;;;;;;14.00;11.00;;;;;;;-0.90;91.42;99186.14;1808176;79;21489;-62
2022/12/01 09:45:57;;;;;;;16.25;12.15;;;;;;;-0.92;91.13;99179.44;1813342;77;21025;-61
2022/12/01 09:48:28;;;;;;;17.57;12.50;;;;;;;-0.96;90.97;99176.85;1807153;79;20906;-62
2022/12/01 09:50:57;;;;;;;19.57;12.68;;;;;;;-0.96;90.52;99175.53;1805967;77;21799;-65
2022/12/01 09:53:27;;;;;;;20.05;13.03;;;;;;;-1.04;90.44;99180.44;1725810;81;21132;-61
2022/12/01 09:55:55;;;;;;;14.63;9.85;;;;;;;-1.05;90.26;99185.87;1775431;79;20875;-60
2022/12/01 09:58:27;;;;;;;16.10;11.60;;;;;;;-1.11;89.67;99178.74;1798245;78;21023;-62
2022/12/01 10:00:54;;;;;;;17.32;11.95;;;;;;;-1.27;89.91;99175.04;1805395;79;21071;-61
2022/12/01 10:03:32;;;;;;;19.40;14.23;;;;;;;-1.25;90.24;99173.03;1812086;77;20932;-61
2022/12/01 10:06:09;;;;;;;18.12;13.68;;;;;;;-1.24;90.12;99168.08;1814305;77;21247;-60
2022/12/01 10:08:41;;;;;;;17.30;12.88;;;;;;;-1.24;90.17;99172.02;1814416;77;20888;-60
2022/12/01 10:11:25;;;;;;;14.35;10.38;;;;;;;-1.26;89.94;99174.02;1833342;77;20853;-63
2022/12/01 10:13:51;;;;;;;13.88;9.83;;;;;;;-1.24;89.95;99175.96;1824731;78;21102;-61
2022/12/01 10:16:25;;;;;;;18.98;11.48;;;;;;;-1.24;89.63;99174.16;1834162;78;21027;-61
2022/12/01 10:19:06;;;;;;;16.57;9.63;;;;;;;-1.23;89.39;99169.72;1781391;79;21206;-60
2022/12/01 10:22:00;;;;;;;13.88;10.75;;;;;;;-1.23;89.69;99174.97;1752665;81;21096;-61
2022/12/01 10:24:52;;;;;;;11.60;9.03;;;;;;;-1.17;89.85;99175.53;1787810;79;21055;-60
2022/12/01 10:27:46;;;;;;;14.40;11.53;;;;;;;-1.13;89.40;99170.23;1777999;80;20987;-60
2022/12/01 10:30:17;;;;;;;14.07;10.58;;;;;;;-1.27;89.06;99170.58;1777155;79;20908;-61
2022/12/01 10:32:54;;;;;;;24.18;14.05;;;;;;;-1.34;89.23;99167.59;1812770;77;21212;-61
2022/12/01 10:35:26;;;;;;;13.28;10.18;;;;;;;-1.33;89.30;99173.14;1801701;79;20962;-61
2022/12/01 10:37:59;;;;;;;15.83;10.00;;;;;;;-1.30;89.37;99167.02;1806356;79;21498;-65
2022/12/01 10:40:25;;;;;;;15.32;10.43;;;;;;;-1.27;89.35;99168.47;1797404;79;20860;-64
2022/12/01 10:42:53;;;;;;;16.55;11.70;;;;;;;-1.22;89.37;99162.95;1803363;78;20932;-61
2022/12/01 10:45:29;;;;;;;13.90;10.88;;;;;;;-1.15;89.46;99157.75;1801732;78;21091;-64
2022/12/01 10:48:20;;;;;;;12.58;8.23;;;;;;;-1.11;89.42;99158.53;1812987;78;21015;-61
2022/12/01 10:50:50;;;;;;;14.45;9.35;;;;;;;-1.06;89.07;99156.13;1837072;77;21486;-63
2022/12/01 10:53:28;;;;;;;14.13;10.28;;;;;;;-1.03;88.81;99147.87;1840516;78;20872;-61
2022/12/01 10:56:09;;;;;;;14.33;10.13;;;;;;;-1.01;88.63;99143.72;1802365;77;21086;-61
2022/12/01 10:58:51;;;;;;;14.23;9.98;;;;;;;-1.03;88.38;99144.42;1795203;79;22110;-61
2022/12/01 11:01:30;;;;;;;12.15;8.88;;;;;;;-1.01;88.27;99142.41;1820884;78;20975;-62
2022/12/01 11:04:19;;;;;;;11.97;8.20;;;;;;;-1.04;88.16;99142.81;1784565;77;20873;-61
2022/12/01 11:06:49;;;;;;;14.95;9.60;;;;;;;-1.10;87.67;99140.42;1829622;77;21403;-61
2022/12/01 11:09:23;;;;;;;12.25;9.23;;;;;;;-1.18;87.84;99146.31;1773364;79;21226;-61
2022/12/01 11:12:02;;;;;;;12.53;9.25;;;;;;;-1.18;88.04;99140.56;1761112;80;22004;-63
2022/12/01 11:14:52;;;;;;;12.07;9.55;;;;;;;-1.16;87.79;99146.94;1756788;80;21324;-61
2022/12/01 11:17:41;;;;;;;12.73;9.20;;;;;;;-1.17;87.67;99147.42;1773132;80;21051;-62
2022/12/01 11:20:38;;;;;;;16.90;9.53;;;;;;;-1.15;87.60;99144.11;1759098;79;21410;-62
2022/12/01 11:23:23;;;;;;;14.45;9.18;;;;;;;-1.18;87.42;99136.61;1821860;77;21046;-60
2022/12/01 11:26:14;;;;;;;12.68;9.68;;;;;;;-1.24;87.37;99138.66;1835682;78;21056;-62
2022/12/01 11:28:54;;;;;;;16.77;10.93;;;;;;;-1.25;87.25;99141.48;1766102;79;21434;-62
2022/12/01 11:31:24;;;;;;;17.52;10.78;;;;;;;-1.24;87.17;99141.78;1757300;80;21052;-61
2022/12/01 11:33:53;;;;;;;20.17;12.50;;;;;;;-1.24;87.23;99145.23;1812024;78;21580;-61
2022/12/01 11:36:36;;;;;;;19.45;12.58;;;;;;;-1.24;87.21;99140.47;1831811;77;20919;-62
2022/12/01 11:46:59;;;;;;;24.25;15.78;;;;;;;-1.24;87.05;99137.34;1802683;78;21442;-63
2022/12/01 11:49:28;;;;;;;19.70;13.45;;;;;;;-1.25;87.02;99132.29;1800267;79;21541;-60
2022/12/01 11:51:54;;;;;;;23.77;16.80;;;;;;;-1.25;87.01;99136.23;1815328;78;21193;-61
2022/12/01 11:54:24;;;;;;;18.90;12.53;;;;;;;-1.20;87.09;99136.48;1814894;79;21489;-62
2022/12/01 11:56:52;;;;;;;18.55;11.75;;;;;;;-1.17;86.97;99140.03;1815880;79;21470;-60
2022/12/01 11:59:24;;;;;;;17.75;12.13;;;;;;;-1.18;86.76;99131.36;1815817;79;20927;-61
2022/12/01 12:02:36;;;;;;;18.48;12.40;;;;;;;-1.17;86.67;99129.52;1816080;78;20988;-62
2022/12/01 12:05:51;;;;;;;18.52;11.63;;;;;;;-1.17;86.30;99132.15;1815341;78;21671;-65
2022/12/01 12:08:54;;;;;;;19.67;11.83;;;;;;;-1.18;86.28;99132.67;1815754;78;20849;-64
2022/12/01 12:11:25;;;;;;;18.80;12.23;;;;;;;-1.20;86.10;99131.23;1815245;79;21457;-62
2022/12/01 12:14:21;;;;;;;16.62;11.35;;;;;;;-1.24;85.75;99124.20;1825395;77;21411;-63
2022/12/01 12:17:19;;;;;;;18.15;10.35;;;;;;;-1.26;85.91;99136.72;1777552;77;20868;-63
2022/12/01 12:20:16;;;;;;;16.87;11.00;;;;;;;-1.23;85.56;99127.66;1802091;77;21144;-63
2022/12/01 12:23:00;;;;;;;16.85;10.72;;;;;;;-1.24;85.18;99124.70;1803302;78;23385;-63
2022/12/01 12:25:51;;;;;;;19.10;12.33;;;;;;;-1.26;85.00;99128.84;1802340;78;21060;-60
2022/12/01 12:28:44;;;;;;;17.10;10.68;;;;;;;-1.29;85.05;99129.20;1825601;77;21462;-62
2022/12/01 12:31:28;;;;;;;18.77;11.95;;;;;;;-1.34;84.30;99128.95;1812634;78;20989;-60
2022/12/01 12:34:27;;;;;;;16.50;10.28;;;;;;;-1.44;84.27;99123.20;1813299;79;21280;-59
2022/12/01 12:37:02;;;;;;;25.45;15.35;;;;;;;-1.51;84.21;99127.05;1822522;77;20938;-59
2022/12/01 12:39:37;;;;;;;32.33;16.97;;;;;;;-1.60;84.44;99126.06;1835641;78;21074;-64
2022/12/01 12:42:10;;;;;;;24.98;15.35;;;;;;;-1.63;84.51;99131.19;1833748;78;21052;-63
2022/12/01 12:44:52;;;;;;;25.35;15.10;;;;;;;-1.64;84.63;99129.55;1813531;79;20939;-61
2022/12/01 12:47:33;;;;;;;20.97;14.15;;;;;;;-1.67;84.74;99133.84;1813344;78;21069;-60
2022/12/01 12:50:26;;;;;;;25.08;17.40;;;;;;;-1.66;85.12;99129.41;1814234;79;22099;-61
2022/12/01 12:52:58;;;;;;;26.52;15.75;;;;;;;-1.59;85.45;99135.06;1816431;78;20955;-63
2022/12/01 12:55:32;;;;;;;35.17;21.05;;;;;;;-1.51;85.40;99126.27;1826182;77;20916;-66
2022/12/01 12:58:13;;;;;;;48.33;36.70;;;;;;;-1.46;85.19;99127.84;1838589;77;21002;-62
